.
WxDataArchive / Data Records for 2013-06-15
2013-06-14 June 2013 2013-06-16

Data Records for Saturday, 15 June 2013

Time	Temp	Chill	HIndex	Humid	Dewpt	 Wind 	HiWind	WindDir	Rain 	Barom 
-----	----	-----	------	-----	-----	------	------	-------	-----	----- 
00:00	62.7	62.7	62.7	80	56.4	0	0	---	0.00	30.018 
00:05	62.6	62.6	62.6	81	56.7	0	0	---	0.00	30.018 
00:10	62.4	62.4	62.4	81	56.5	0	0	---	0.00	30.018 
00:15	62.3	62.3	62.3	81	56.4	0	0	---	0.00	30.014 
00:20	62.3	62.3	62.3	81	56.4	0	0	---	0.00	30.014 
00:25	62.1	62.1	62.1	81	56.2	0	0	---	0.00	30.014 
00:30	62.0	62.0	62.0	82	56.4	0	0	---	0.00	30.014 
00:35	61.8	61.8	61.8	82	56.2	0	0	---	0.00	30.014 
00:40	61.6	61.6	61.6	82	56.0	0	0	---	0.00	30.014 
00:45	61.5	61.5	61.5	82	55.9	0	0	---	0.00	30.011 
00:50	61.5	61.5	61.5	83	56.3	0	0	---	0.00	30.011 
00:55	61.5	61.5	61.5	83	56.3	0	0	---	0.00	30.011 
01:00	61.3	61.3	61.3	84	56.4	0	0	---	0.00	30.021 
01:05	61.3	61.3	61.3	84	56.4	0	0	---	0.00	30.021 
01:10	61.3	61.3	61.3	84	56.4	0	0	---	0.00	30.021 
01:15	61.3	61.3	61.3	84	56.4	0	0	---	0.00	30.020 
01:20	61.2	61.2	61.2	84	56.3	0	0	---	0.00	30.020 
01:25	60.9	60.9	60.9	85	56.4	0	0	---	0.00	30.020 
01:30	60.7	60.7	60.7	85	56.2	0	0	---	0.00	30.020 
01:35	60.7	60.7	60.7	85	56.2	0	0	---	0.00	30.020 
01:40	60.5	60.5	60.5	85	56.0	0	0	---	0.00	30.020 
01:45	60.4	60.4	60.4	86	56.2	0	0	---	0.00	30.031 
01:50	60.2	60.2	60.2	86	56.0	0	0	---	0.00	30.031 
01:55	60.1	60.1	60.1	86	55.9	0	0	---	0.00	30.031 
02:00	59.9	59.9	59.9	86	55.7	0	0	---	0.00	30.029 
02:05	59.8	59.8	59.8	87	55.9	0	0	---	0.00	30.029 
02:10	59.6	59.6	59.6	87	55.7	0	0	---	0.00	30.029 
02:15	59.5	59.5	59.5	87	55.6	0	0	---	0.00	30.021 
02:20	59.5	59.5	59.5	87	55.6	0	0	---	0.00	30.021 
02:25	59.3	59.3	59.3	88	55.7	0	0	---	0.00	30.021 
02:30	59.2	59.2	59.2	88	55.6	0	0	---	0.00	30.029 
02:35	59.2	59.2	59.2	88	55.6	0	0	---	0.00	30.029 
02:40	59.0	59.0	59.0	88	55.4	0	0	---	0.00	30.029 
02:45	58.9	58.9	58.9	88	55.3	0	0	---	0.00	30.040 
02:50	58.9	58.9	58.9	88	55.3	0	0	---	0.00	30.040 
02:55	58.7	58.7	58.7	89	55.5	0	0	---	0.00	30.040 
03:00	58.6	58.6	58.6	89	55.4	0	0	---	0.00	30.039 
03:05	58.6	58.6	58.6	89	55.4	0	0	---	0.00	30.039 
03:10	58.4	58.4	58.4	89	55.2	0	0	---	0.00	30.039 
03:15	58.4	58.4	58.4	89	55.2	0	0	---	0.00	30.052 
03:20	58.4	58.4	58.4	89	55.2	0	0	---	0.00	30.052 
03:25	58.3	58.3	58.3	90	55.4	0	0	---	0.00	30.052 
03:30	58.3	58.3	58.3	90	55.4	0	0	---	0.00	30.048 
03:35	58.3	58.3	58.3	90	55.4	0	0	---	0.00	30.048 
03:40	58.1	58.1	58.1	90	55.2	0	0	---	0.00	30.048 
03:45	58.1	58.1	58.1	90	55.2	0	0	---	0.00	30.049 
03:50	58.1	58.1	58.1	90	55.2	0	0	---	0.00	30.049 
03:55	58.0	58.0	58.0	90	55.1	0	0	---	0.00	30.049 
04:00	58.0	58.0	58.0	90	55.1	0	0	---	0.00	30.052 
04:05	57.8	57.8	57.8	90	54.9	0	0	---	0.00	30.052 
04:10	57.8	57.8	57.8	91	55.2	0	0	---	0.00	30.052 
04:15	57.8	57.8	57.8	91	55.2	0	0	---	0.00	30.042 
04:20	57.8	57.8	57.8	91	55.2	0	0	---	0.00	30.042 
04:25	58.0	58.0	58.0	91	55.4	0	0	---	0.00	30.042 
04:30	58.0	58.0	58.0	91	55.4	0	0	---	0.00	30.038 
04:35	58.0	58.0	58.0	91	55.4	0	0	---	0.00	30.038 
04:40	58.1	58.1	58.1	92	55.8	0	0	---	0.00	30.038 
04:45	58.1	58.1	58.1	92	55.8	0	0	---	0.00	30.027 
04:50	58.1	58.1	58.1	92	55.8	0	0	---	0.00	30.027 
04:55	58.1	58.1	58.1	92	55.8	0	0	---	0.00	30.027 
05:00	58.0	58.0	58.0	92	55.7	0	0	---	0.00	30.029 
05:05	58.0	58.0	58.0	92	55.7	0	0	---	0.00	30.029 
05:10	58.0	58.0	58.0	92	55.7	0	0	---	0.00	30.029 
05:15	58.1	58.1	58.1	92	55.8	0	0	---	0.00	30.034 
05:20	58.1	58.1	58.1	92	55.8	0	0	---	0.00	30.034 
05:25	58.1	58.1	58.1	92	55.8	0	0	---	0.00	30.034 
05:30	58.1	58.1	58.1	92	55.8	0	0	---	0.00	30.038 
05:35	58.1	58.1	58.1	92	55.8	0	0	---	0.00	30.038 
05:40	58.1	58.1	58.1	92	55.8	0	0	---	0.00	30.038 
05:45	58.1	58.1	58.1	92	55.8	0	0	---	0.00	30.044 
05:50	58.0	58.0	58.0	92	55.7	0	0	---	0.00	30.044 
05:55	57.8	57.8	57.8	92	55.5	0	0	---	0.00	30.044 
06:00	57.8	57.8	57.8	92	55.5	0	0	---	0.00	30.049 
06:05	57.6	57.6	57.6	92	55.3	0	0	---	0.00	30.049 
06:10	57.6	57.6	57.6	92	55.3	0	0	---	0.00	30.049 
06:15	57.5	57.5	57.5	92	55.2	0	0	---	0.00	30.057 
06:20	57.5	57.5	57.5	92	55.2	0	0	---	0.00	30.057 
06:25	57.5	57.5	57.5	92	55.2	0	0	---	0.00	30.057 
06:30	57.5	57.5	57.5	92	55.2	0	0	---	0.00	30.063 
06:35	57.6	57.6	57.6	92	55.3	0	0	---	0.00	30.063 
06:40	57.6	57.6	57.6	92	55.3	0	0	---	0.00	30.063 
06:45	57.8	57.8	57.8	92	55.5	0	0	---	0.00	30.066 
06:50	58.0	58.0	58.0	92	55.7	0	0	---	0.00	30.066 
06:55	58.3	58.3	58.3	92	56.0	0	0	---	0.00	30.066 
07:00	58.4	58.4	58.4	92	56.1	0	0	---	0.00	30.072 
07:05	58.7	58.7	58.7	92	56.4	0	0	---	0.00	30.072 
07:10	58.9	58.9	58.9	92	56.6	0	0	---	0.00	30.072 
07:15	59.3	59.3	59.3	92	57.0	0	0	---	0.00	30.072 
07:20	59.6	59.6	59.6	92	57.3	0	0	---	0.00	30.072 
07:25	59.9	59.9	59.9	92	57.6	0	0	---	0.00	30.072 
07:30	60.2	60.2	60.2	92	57.9	0	0	---	0.00	30.071 
07:35	60.5	60.5	60.5	92	58.2	0	0	---	0.00	30.071 
07:40	60.9	60.9	60.9	92	58.6	0	0	---	0.00	30.071 
07:45	61.3	61.3	61.3	91	58.6	0	0	---	0.00	30.084 
07:50	61.8	61.8	61.8	90	58.8	0	0	---	0.00	30.084 
07:55	62.1	62.1	62.1	89	58.8	0	0	---	0.00	30.084 
08:00	62.4	62.4	62.4	88	58.8	0	0	---	0.00	30.086 
08:05	63.1	63.1	63.1	87	59.2	0	0	---	0.00	30.086 
08:10	64.0	64.0	64.0	86	59.7	0	0	---	0.00	30.086 
08:15	64.8	64.8	64.8	83	59.5	0	0	---	0.00	30.085 
08:20	65.3	65.3	65.3	79	58.6	0	0	---	0.00	30.085 
08:25	66.3	66.3	66.3	78	59.2	0	1	90	0.00	30.085 
08:30	66.9	66.9	66.9	74	58.3	0	2	90	0.00	30.079 
08:35	67.4	67.4	67.4	73	58.4	0	1	90	0.00	30.079 
08:40	67.6	67.6	67.6	72	58.2	0	0	---	0.00	30.079 
08:45	67.8	67.8	67.8	73	58.8	0	0	---	0.00	30.072 
08:50	67.8	67.8	67.8	73	58.8	0	0	---	0.00	30.072 
08:55	68.3	68.3	68.3	73	59.3	0	1	90	0.00	30.072 
09:00	68.6	68.6	68.6	71	58.8	0	2	90	0.00	30.070 
09:05	68.9	68.9	68.9	69	58.3	0	3	315	0.00	30.070 
09:10	69.3	69.3	69.3	69	58.7	0	2	270	0.00	30.070 
09:15	69.8	69.8	69.8	68	58.7	0	1	270	0.00	30.068 
09:20	70.4	70.4	70.4	68	59.3	0	1	270	0.00	30.068 
09:25	71.1	71.1	71.1	65	58.7	0	3	112	0.00	30.068 
09:30	71.6	71.6	71.6	63	58.3	0	2	112	0.00	30.064 
09:35	72.0	72.0	72.0	62	58.3	0	2	158	0.00	30.064 
09:40	72.5	72.5	72.5	59	57.3	0	2	180	0.00	30.064 
09:45	73.0	73.0	73.0	61	58.7	0	1	180	0.00	30.061 
09:50	73.5	73.5	73.5	60	58.7	0	2	45	0.00	30.061 
09:55	73.9	73.9	73.9	55	56.7	0	3	45	0.00	30.061 
10:00	74.2	74.2	74.2	57	58.0	0	2	270	0.00	30.050 
10:05	74.2	74.2	74.2	57	58.0	0	3	270	0.00	30.050 
10:10	74.2	74.2	74.2	57	58.0	0	2	270	0.00	30.050 
10:15	73.9	73.9	73.9	56	57.2	1	3	248	0.00	30.050 
10:20	74.0	74.0	74.0	58	58.3	0	2	248	0.00	30.050 
10:25	74.4	74.4	74.4	57	58.2	1	4	225	0.00	30.050 
10:30	74.4	74.4	74.4	55	57.2	2	4	248	0.00	30.040 
10:35	74.4	74.4	74.4	57	58.2	1	3	248	0.00	30.040 
10:40	74.9	74.9	74.9	58	59.1	0	4	248	0.00	30.040 
10:45	75.3	75.3	77.6	57	59.0	1	4	248	0.00	30.032 
10:50	75.3	75.3	77.7	56	58.5	0	3	248	0.00	30.032 
10:55	75.4	75.4	77.7	56	58.6	1	3	248	0.00	30.032 
11:00	75.6	75.6	77.8	57	59.3	1	4	248	0.00	30.022 
11:05	76.0	76.0	78.1	57	59.6	1	3	270	0.00	30.022 
11:10	76.1	76.1	78.1	58	60.2	1	3	270	0.00	30.022 
11:15	76.1	76.1	78.1	57	59.7	1	2	248	0.00	30.019 
11:20	76.5	76.5	78.4	55	59.1	1	2	270	0.00	30.019 
11:25	76.5	76.5	78.4	56	59.6	1	4	270	0.00	30.019 
11:30	76.7	76.7	78.5	56	59.8	1	4	270	0.00	30.007 
11:35	76.8	76.8	78.6	57	60.4	0	2	270	0.00	30.007 
11:40	77.2	77.2	78.8	54	59.2	1	4	90	0.00	30.007 
11:45	77.6	77.6	79.1	54	59.6	1	3	112	0.00	30.004 
11:50	78.1	78.1	79.4	51	58.5	1	4	45	0.00	30.004 
11:55	78.1	78.1	79.5	53	59.6	2	5	90	0.00	30.004 
12:00	78.1	78.1	79.5	54	60.1	1	6	90	0.00	30.002 
12:05	78.3	78.3	79.8	56	61.3	0	2	90	0.00	30.002 
12:10	78.8	78.8	79.9	52	59.7	1	3	90	0.00	30.002 
12:15	78.8	78.8	80.0	53	60.2	1	4	90	0.00	29.996 
12:20	78.6	78.6	79.8	52	59.5	0	3	90	0.00	29.996 
12:25	78.5	78.5	79.8	53	59.9	1	5	90	0.00	29.996 
12:30	78.1	78.1	79.4	52	59.0	1	3	90	0.00	29.991 
12:35	78.3	78.3	79.4	50	58.1	1	4	90	0.00	29.991 
12:40	78.8	78.8	80.1	54	60.7	0	2	90	0.00	29.991 
12:45	79.4	79.4	80.5	52	60.2	0	2	90	0.00	29.987 
12:50	79.8	79.8	80.8	52	60.6	0	3	90	0.00	29.987 
12:55	79.9	79.9	80.8	51	60.1	0	3	90	0.00	29.987 
13:00	79.9	79.9	80.7	50	59.6	0	1	90	0.00	29.993 
13:05	79.8	79.8	80.4	47	57.8	0	2	90	0.00	29.993 
13:10	79.2	79.2	80.1	49	58.4	0	2	90	0.00	29.993 
13:15	78.5	78.5	79.6	51	58.8	0	1	90	0.00	29.996 
13:20	77.9	77.9	79.3	53	59.4	0	1	90	0.00	29.996 
13:25	77.4	77.4	78.9	52	58.4	0	1	90	0.00	29.996 
13:30	77.4	77.4	79.0	54	59.4	0	1	90	0.00	30.003 
13:35	77.2	77.2	78.8	54	59.2	0	2	90	0.00	30.003 
13:40	77.0	77.0	78.7	53	58.5	0	1	90	0.00	30.003 
13:45	76.7	76.7	78.5	54	58.8	0	1	90	0.00	30.006 
13:50	76.5	76.5	78.4	56	59.6	0	1	90	0.00	30.006 
13:55	76.3	76.3	78.3	57	59.9	0	1	90	0.00	30.006 
14:00	76.0	76.0	78.1	56	59.2	0	2	90	0.00	30.013 
14:05	75.6	75.6	77.8	55	58.3	0	2	90	0.00	30.013 
14:10	75.4	75.4	77.7	56	58.6	0	1	90	0.00	30.013 
14:15	75.3	75.3	77.6	57	59.0	0	1	90	0.00	30.023 
14:20	75.3	75.3	77.6	58	59.5	0	1	90	0.00	30.023 
14:25	75.3	75.3	77.5	60	60.4	1	3	90	0.00	30.023 
14:30	74.7	74.7	74.7	62	60.8	0	2	292	0.00	30.033 
14:35	74.0	74.0	74.0	65	61.5	1	2	292	0.00	30.033 
14:40	73.7	73.7	73.7	66	61.6	0	1	292	0.00	30.033 
14:45	73.3	73.3	73.3	66	61.2	0	1	292	0.00	30.036 
14:50	73.2	73.2	73.2	65	60.7	0	1	292	0.00	30.036 
14:55	73.2	73.2	73.2	65	60.7	0	0	---	0.00	30.036 
15:00	73.2	73.2	73.2	65	60.7	0	1	292	0.00	30.034 
15:05	73.2	73.2	73.2	65	60.7	0	0	---	0.00	30.034 
15:10	73.2	73.2	73.2	67	61.6	0	0	---	0.00	30.034 
15:15	73.0	73.0	73.0	66	61.0	0	1	292	0.00	30.032 
15:20	72.8	72.8	72.8	64	59.9	0	0	---	0.00	30.032 
15:25	72.7	72.7	72.7	64	59.8	0	0	---	0.00	30.032 
15:30	72.3	72.3	72.3	67	60.7	0	0	---	0.00	30.035 
15:35	71.6	71.6	71.6	68	60.5	0	0	---	0.01	30.035 
15:40	70.9	70.9	70.9	73	61.8	0	1	292	0.00	30.035 
15:45	70.6	70.6	70.6	76	62.7	0	0	---	0.00	30.036 
15:50	70.3	70.3	70.3	78	63.1	0	1	292	0.00	30.036 
15:55	70.1	70.1	70.1	81	64.0	0	1	292	0.00	30.036 
16:00	69.9	69.9	69.9	82	64.1	0	1	292	0.01	30.033 
16:05	69.9	69.9	69.9	84	64.8	0	2	292	0.00	30.033 
16:10	69.8	69.8	69.8	84	64.7	0	2	292	0.00	30.033 
16:15	69.8	69.8	69.8	85	65.1	0	2	292	0.00	30.027 
16:20	69.8	69.8	69.8	86	65.4	0	1	292	0.00	30.027 
16:25	69.6	69.6	69.6	86	65.2	0	1	292	0.00	30.027 
16:30	69.4	69.4	69.4	86	65.0	0	1	292	0.00	30.026 
16:35	69.4	69.4	69.4	87	65.4	0	1	292	0.00	30.026 
16:40	69.6	69.6	69.6	87	65.6	0	0	---	0.00	30.026 
16:45	69.8	69.8	69.8	88	66.1	0	1	292	0.00	30.024 
16:50	69.8	69.8	69.8	87	65.7	0	1	292	0.00	30.024 
16:55	69.9	69.9	69.9	87	65.8	0	1	292	0.00	30.024 
17:00	69.9	69.9	69.9	87	65.8	0	1	292	0.00	30.023 
17:05	69.9	69.9	69.9	86	65.5	0	1	292	0.00	30.023 
17:10	69.9	69.9	69.9	86	65.5	0	0	---	0.00	30.023 
17:15	69.9	69.9	69.9	86	65.5	0	1	292	0.00	30.025 
17:20	69.9	69.9	69.9	85	65.2	0	1	292	0.00	30.025 
17:25	69.9	69.9	69.9	86	65.5	0	1	292	0.00	30.025 
17:30	69.9	69.9	69.9	86	65.5	0	1	292	0.00	30.027 
17:35	70.1	70.1	70.1	86	65.7	0	1	292	0.00	30.027 
17:40	70.1	70.1	70.1	86	65.7	0	1	292	0.01	30.027 
17:45	69.9	69.9	69.9	86	65.5	0	1	292	0.00	30.020 
17:50	69.9	69.9	69.9	86	65.5	0	1	292	0.00	30.020 
17:55	69.8	69.8	69.8	86	65.4	0	1	292	0.00	30.020 
18:00	69.6	69.6	69.6	86	65.2	0	1	292	0.00	30.010 
18:05	69.6	69.6	69.6	86	65.2	0	0	---	0.00	30.010 
18:10	69.4	69.4	69.4	86	65.0	0	1	292	0.00	30.010 
18:15	69.4	69.4	69.4	86	65.0	0	1	292	0.00	30.001 
18:20	69.4	69.4	69.4	86	65.0	0	1	292	0.00	30.001 
18:25	69.3	69.3	69.3	86	64.9	0	0	---	0.00	30.001 
18:30	69.1	69.1	69.1	86	64.7	0	1	292	0.00	29.992 
18:35	69.1	69.1	69.1	86	64.7	0	1	292	0.00	29.992 
18:40	69.1	69.1	69.1	85	64.4	0	1	292	0.00	29.992 
18:45	68.9	68.9	68.9	85	64.2	0	1	292	0.00	29.983 
18:50	68.9	68.9	68.9	85	64.2	0	1	292	0.00	29.983 
18:55	68.8	68.8	68.8	85	64.1	0	0	---	0.00	29.983 
19:00	68.8	68.8	68.8	84	63.8	0	0	---	0.00	29.979 
19:05	68.6	68.6	68.6	83	63.2	0	1	292	0.00	29.979 
19:10	68.6	68.6	68.6	82	62.9	0	0	---	0.00	29.979 
19:15	68.6	68.6	68.6	81	62.5	0	0	---	0.00	29.964 
19:20	68.6	68.6	68.6	81	62.5	0	1	292	0.00	29.964 
19:25	68.6	68.6	68.6	81	62.5	0	1	292	0.00	29.964 
19:30	68.6	68.6	68.6	82	62.9	0	2	292	0.00	29.956 
19:35	68.6	68.6	68.6	81	62.5	0	1	292	0.00	29.956 
19:40	68.4	68.4	68.4	82	62.7	0	1	292	0.00	29.956 
19:45	68.4	68.4	68.4	82	62.7	0	1	292	0.00	29.946 
19:50	68.4	68.4	68.4	82	62.7	0	1	292	0.00	29.946 
19:55	68.4	68.4	68.4	83	63.0	0	0	---	0.00	29.946 
20:00	68.6	68.6	68.6	83	63.2	0	1	292	0.00	29.940 
20:05	68.6	68.6	68.6	83	63.2	0	1	292	0.00	29.940 
20:10	68.8	68.8	68.8	84	63.8	0	2	292	0.00	29.940 
20:15	68.8	68.8	68.8	84	63.8	1	3	45	0.00	29.924 
20:20	68.8	68.8	68.8	84	63.8	1	5	45	0.00	29.924 
20:25	68.6	68.6	68.6	83	63.2	0	1	45	0.00	29.924 
20:30	68.4	68.4	68.4	83	63.0	0	1	45	0.00	29.925 
20:35	68.4	68.4	68.4	83	63.0	0	3	45	0.00	29.925 
20:40	68.3	68.3	68.3	84	63.3	0	1	45	0.00	29.925 
20:45	68.3	68.3	68.3	84	63.3	0	1	45	0.00	29.925 
20:50	68.3	68.3	68.3	84	63.3	0	1	45	0.00	29.925 
20:55	68.3	68.3	68.3	85	63.6	0	1	45	0.00	29.925 
21:00	68.3	68.3	68.3	85	63.6	0	1	45	0.00	29.930 
21:05	68.3	68.3	68.3	85	63.6	0	1	45	0.00	29.930 
21:10	68.3	68.3	68.3	85	63.6	0	1	45	0.00	29.930 
21:15	68.3	68.3	68.3	85	63.6	0	1	45	0.00	29.921 
21:20	68.1	68.1	68.1	84	63.1	0	2	45	0.00	29.921 
21:25	68.1	68.1	68.1	84	63.1	0	1	45	0.00	29.921 
21:30	67.9	67.9	67.9	83	62.5	0	1	45	0.00	29.926 
21:35	67.9	67.9	67.9	82	62.2	0	1	45	0.00	29.926 
21:40	67.9	67.9	67.9	82	62.2	0	0	---	0.00	29.926 
21:45	67.8	67.8	67.8	82	62.1	0	1	45	0.00	29.935 
21:50	67.8	67.8	67.8	82	62.1	0	2	68	0.00	29.935 
21:55	67.9	67.9	67.9	81	61.8	0	2	68	0.00	29.935 
22:00	67.9	67.9	67.9	81	61.8	0	2	68	0.00	29.937 
22:05	67.9	67.9	67.9	81	61.8	0	1	68	0.00	29.937 
22:10	67.9	67.9	67.9	81	61.8	0	2	68	0.00	29.937 
22:15	67.9	67.9	67.9	81	61.8	0	1	68	0.00	29.935 
22:20	67.9	67.9	67.9	81	61.8	0	2	68	0.00	29.935 
22:25	67.9	67.9	67.9	81	61.8	0	1	68	0.00	29.935 
22:30	67.9	67.9	67.9	81	61.8	0	1	68	0.00	29.935 
22:35	67.8	67.8	67.8	81	61.7	0	0	---	0.00	29.935 
22:40	67.6	67.6	67.6	82	61.9	0	1	68	0.00	29.935 
22:45	67.4	67.4	67.4	82	61.7	0	0	---	0.00	29.930 
22:50	67.3	67.3	67.3	82	61.6	0	0	---	0.00	29.930 
22:55	67.1	67.1	67.1	82	61.4	0	0	---	0.00	29.930 
23:00	66.9	66.9	66.9	83	61.6	0	0	---	0.00	29.935 
23:05	66.8	66.8	66.8	83	61.5	0	0	---	0.00	29.935 
23:10	66.4	66.4	66.4	84	61.4	0	0	---	0.00	29.935 
23:15	66.4	66.4	66.4	84	61.4	0	0	---	0.00	29.931 
23:20	66.3	66.3	66.3	84	61.3	0	1	68	0.00	29.931 
23:25	66.3	66.3	66.3	84	61.3	0	0	---	0.00	29.931 
23:30	66.1	66.1	66.1	85	61.5	0	0	---	0.00	29.926 
23:35	66.1	66.1	66.1	85	61.5	0	1	68	0.00	29.926 
23:40	66.0	66.0	66.0	85	61.4	0	0	---	0.00	29.926 
23:45	65.8	65.8	65.8	85	61.2	0	0	---	0.00	29.919 
23:50	65.8	65.8	65.8	85	61.2	0	0	---	0.00	29.919 
23:55	65.6	65.6	65.6	86	61.3	0	0	---	0.00	29.919 

CoCoRaHS
IN-AL-39
A2 Web Hosting
Creative Commons License
GoDaddy
search engine by freefind advanced

loaded 2018-11-17 11:57:03 • last modified 2010-11-18 10:43:29
Privacy PolicyDisclaimer
• wx.awcolley.com is powered by PmWiki v.2002016 •
• all content (unless otherwise noted) © 2018 A W Colley